sensor_id;sensor_type;location;lat;lon;timestamp;P1;durP1;ratioP1;P2;durP2;ratioP2
11037;SDS011;5572;49.540;11.932;2022-09-02T00:00:50;4.07;;;2.10;;
11037;SDS011;5572;49.540;11.932;2022-09-02T00:03:19;2.77;;;2.30;;
11037;SDS011;5572;49.540;11.932;2022-09-02T00:05:46;4.93;;;2.30;;
11037;SDS011;5572;49.540;11.932;2022-09-02T00:08:14;5.07;;;2.37;;
11037;SDS011;5572;49.540;11.932;2022-09-02T00:10:41;2.50;;;2.30;;
11037;SDS011;5572;49.540;11.932;2022-09-02T00:13:09;2.83;;;2.60;;
11037;SDS011;5572;49.540;11.932;2022-09-02T00:15:37;2.03;;;1.93;;
11037;SDS011;5572;49.540;11.932;2022-09-02T00:18:04;7.77;;;2.23;;
11037;SDS011;5572;49.540;11.932;2022-09-02T00:20:32;2.40;;;1.80;;
11037;SDS011;5572;49.540;11.932;2022-09-02T00:22:58;3.10;;;2.07;;
11037;SDS011;5572;49.540;11.932;2022-09-02T00:25:26;6.07;;;2.50;;
11037;SDS011;5572;49.540;11.932;2022-09-02T00:27:53;4.93;;;2.23;;
11037;SDS011;5572;49.540;11.932;2022-09-02T00:30:19;2.70;;;2.40;;
11037;SDS011;5572;49.540;11.932;2022-09-02T00:32:46;2.07;;;1.97;;
11037;SDS011;5572;49.540;11.932;2022-09-02T00:35:12;2.50;;;2.30;;
11037;SDS011;5572;49.540;11.932;2022-09-02T00:37:39;3.30;;;2.20;;
11037;SDS011;5572;49.540;11.932;2022-09-02T00:40:06;3.70;;;2.10;;
11037;SDS011;5572;49.540;11.932;2022-09-02T00:42:37;3.57;;;2.37;;
11037;SDS011;5572;49.540;11.932;2022-09-02T00:45:04;2.80;;;2.20;;
11037;SDS011;5572;49.540;11.932;2022-09-02T00:47:32;2.50;;;2.30;;
11037;SDS011;5572;49.540;11.932;2022-09-02T00:50:00;2.10;;;1.90;;
11037;SDS011;5572;49.540;11.932;2022-09-02T00:52:31;5.00;;;2.20;;
11037;SDS011;5572;49.540;11.932;2022-09-02T00:54:59;4.83;;;2.17;;
11037;SDS011;5572;49.540;11.932;2022-09-02T00:57:29;3.63;;;2.23;;
11037;SDS011;5572;49.540;11.932;2022-09-02T01:00:03;2.30;;;2.10;;
11037;SDS011;5572;49.540;11.932;2022-09-02T01:02:34;3.60;;;2.10;;
11037;SDS011;5572;49.540;11.932;2022-09-02T01:05:03;2.60;;;2.20;;
11037;SDS011;5572;49.540;11.932;2022-09-02T01:07:32;4.40;;;2.10;;
11037;SDS011;5572;49.540;11.932;2022-09-02T01:10:03;2.37;;;2.07;;
11037;SDS011;5572;49.540;11.932;2022-09-02T01:12:32;4.63;;;2.40;;
11037;SDS011;5572;49.540;11.932;2022-09-02T01:15:01;2.20;;;2.07;;
11037;SDS011;5572;49.540;11.932;2022-09-02T01:17:29;2.10;;;1.90;;
11037;SDS011;5572;49.540;11.932;2022-09-02T01:19:59;3.70;;;2.63;;
11037;SDS011;5572;49.540;11.932;2022-09-02T01:22:30;3.57;;;2.37;;
11037;SDS011;5572;49.540;11.932;2022-09-02T01:24:59;2.73;;;2.53;;
11037;SDS011;5572;49.540;11.932;2022-09-02T01:27:30;3.70;;;2.70;;
11037;SDS011;5572;49.540;11.932;2022-09-02T01:29:57;2.00;;;1.80;;
11037;SDS011;5572;49.540;11.932;2022-09-02T01:32:25;1.87;;;1.77;;
11037;SDS011;5572;49.540;11.932;2022-09-02T01:34:53;2.23;;;2.07;;
11037;SDS011;5572;49.540;11.932;2022-09-02T01:37:20;3.10;;;2.07;;
11037;SDS011;5572;49.540;11.932;2022-09-02T01:39:49;2.13;;;2.03;;
11037;SDS011;5572;49.540;11.932;2022-09-02T01:42:16;3.03;;;2.73;;
11037;SDS011;5572;49.540;11.932;2022-09-02T01:44:43;2.40;;;2.00;;
11037;SDS011;5572;49.540;11.932;2022-09-02T01:47:10;3.27;;;2.53;;
11037;SDS011;5572;49.540;11.932;2022-09-02T01:49:37;3.50;;;2.10;;
11037;SDS011;5572;49.540;11.932;2022-09-02T01:52:04;2.03;;;1.93;;
11037;SDS011;5572;49.540;11.932;2022-09-02T01:54:31;2.13;;;2.00;;
11037;SDS011;5572;49.540;11.932;2022-09-02T01:56:59;1.90;;;1.80;;
11037;SDS011;5572;49.540;11.932;2022-09-02T01:59:26;2.30;;;2.17;;
11037;SDS011;5572;49.540;11.932;2022-09-02T02:01:52;2.40;;;2.13;;
11037;SDS011;5572;49.540;11.932;2022-09-02T02:04:19;2.80;;;2.60;;
11037;SDS011;5572;49.540;11.932;2022-09-02T02:06:47;2.37;;;2.13;;
11037;SDS011;5572;49.540;11.932;2022-09-02T02:09:13;2.07;;;1.97;;
11037;SDS011;5572;49.540;11.932;2022-09-02T02:11:41;3.07;;;2.13;;
11037;SDS011;5572;49.540;11.932;2022-09-02T02:14:10;1.93;;;1.83;;
11037;SDS011;5572;49.540;11.932;2022-09-02T02:16:37;2.80;;;2.30;;
11037;SDS011;5572;49.540;11.932;2022-09-02T02:19:04;1.60;;;1.50;;
11037;SDS011;5572;49.540;11.932;2022-09-02T02:21:31;1.90;;;1.80;;
11037;SDS011;5572;49.540;11.932;2022-09-02T02:23:58;2.17;;;1.70;;
11037;SDS011;5572;49.540;11.932;2022-09-02T02:26:25;3.03;;;1.97;;
11037;SDS011;5572;49.540;11.932;2022-09-02T02:28:52;3.63;;;2.10;;
11037;SDS011;5572;49.540;11.932;2022-09-02T02:31:20;1.97;;;1.87;;
11037;SDS011;5572;49.540;11.932;2022-09-02T02:33:48;3.93;;;1.80;;
11037;SDS011;5572;49.540;11.932;2022-09-02T02:36:15;1.90;;;1.80;;
11037;SDS011;5572;49.540;11.932;2022-09-02T02:38:42;1.90;;;1.80;;
11037;SDS011;5572;49.540;11.932;2022-09-02T02:41:10;3.10;;;1.90;;
11037;SDS011;5572;49.540;11.932;2022-09-02T02:43:38;2.87;;;2.07;;
11037;SDS011;5572;49.540;11.932;2022-09-02T02:46:05;2.17;;;1.97;;
11037;SDS011;5572;49.540;11.932;2022-09-02T02:48:34;2.73;;;1.60;;
11037;SDS011;5572;49.540;11.932;2022-09-02T02:51:01;2.20;;;1.70;;
11037;SDS011;5572;49.540;11.932;2022-09-02T02:53:28;1.70;;;1.60;;
11037;SDS011;5572;49.540;11.932;2022-09-02T02:55:55;1.93;;;1.83;;
11037;SDS011;5572;49.540;11.932;2022-09-02T02:58:22;1.53;;;1.53;;
11037;SDS011;5572;49.540;11.932;2022-09-02T03:00:49;7.53;;;2.40;;
11037;SDS011;5572;49.540;11.932;2022-09-02T03:03:16;1.80;;;1.70;;
11037;SDS011;5572;49.540;11.932;2022-09-02T03:05:45;2.20;;;2.00;;
11037;SDS011;5572;49.540;11.932;2022-09-02T03:08:13;2.30;;;2.10;;
11037;SDS011;5572;49.540;11.932;2022-09-02T03:10:40;1.80;;;1.70;;
11037;SDS011;5572;49.540;11.932;2022-09-02T03:13:08;1.90;;;1.80;;
11037;SDS011;5572;49.540;11.932;2022-09-02T03:15:36;1.73;;;1.63;;
11037;SDS011;5572;49.540;11.932;2022-09-02T03:18:04;3.03;;;1.87;;
11037;SDS011;5572;49.540;11.932;2022-09-02T03:20:31;2.20;;;2.00;;
11037;SDS011;5572;49.540;11.932;2022-09-02T03:22:59;2.20;;;2.00;;
11037;SDS011;5572;49.540;11.932;2022-09-02T03:25:28;1.90;;;1.80;;
11037;SDS011;5572;49.540;11.932;2022-09-02T03:27:56;2.77;;;2.00;;
11037;SDS011;5572;49.540;11.932;2022-09-02T03:30:24;2.83;;;2.17;;
11037;SDS011;5572;49.540;11.932;2022-09-02T03:32:53;2.03;;;1.87;;
11037;SDS011;5572;49.540;11.932;2022-09-02T03:35:21;1.67;;;1.60;;
11037;SDS011;5572;49.540;11.932;2022-09-02T03:37:48;1.87;;;1.77;;
11037;SDS011;5572;49.540;11.932;2022-09-02T03:40:18;2.27;;;1.90;;
11037;SDS011;5572;49.540;11.932;2022-09-02T03:42:46;1.80;;;1.70;;
11037;SDS011;5572;49.540;11.932;2022-09-02T03:45:13;2.30;;;2.00;;
11037;SDS011;5572;49.540;11.932;2022-09-02T03:47:41;2.33;;;2.13;;
11037;SDS011;5572;49.540;11.932;2022-09-02T03:50:15;3.37;;;2.10;;
11037;SDS011;5572;49.540;11.932;2022-09-02T03:52:42;2.33;;;1.80;;
11037;SDS011;5572;49.540;11.932;2022-09-02T03:55:09;3.07;;;2.00;;
11037;SDS011;5572;49.540;11.932;2022-09-02T03:57:37;1.83;;;1.73;;
11037;SDS011;5572;49.540;11.932;2022-09-02T04:00:04;2.17;;;1.97;;
11037;SDS011;5572;49.540;11.932;2022-09-02T04:02:33;1.50;;;1.50;;
11037;SDS011;5572;49.540;11.932;2022-09-02T04:04:59;2.00;;;1.73;;
11037;SDS011;5572;49.540;11.932;2022-09-02T04:07:26;6.80;;;2.10;;
11037;SDS011;5572;49.540;11.932;2022-09-02T04:09:53;3.33;;;2.00;;
11037;SDS011;5572;49.540;11.932;2022-09-02T04:12:20;1.70;;;1.60;;
11037;SDS011;5572;49.540;11.932;2022-09-02T04:14:48;3.70;;;2.00;;
11037;SDS011;5572;49.540;11.932;2022-09-02T04:17:15;2.23;;;2.13;;
11037;SDS011;5572;49.540;11.932;2022-09-02T04:19:41;5.63;;;2.27;;
11037;SDS011;5572;49.540;11.932;2022-09-02T04:22:08;2.17;;;2.07;;
11037;SDS011;5572;49.540;11.932;2022-09-02T04:24:35;1.80;;;1.70;;
11037;SDS011;5572;49.540;11.932;2022-09-02T04:27:02;1.97;;;1.87;;
11037;SDS011;5572;49.540;11.932;2022-09-02T04:29:29;2.20;;;2.00;;
11037;SDS011;5572;49.540;11.932;2022-09-02T04:31:57;4.87;;;2.37;;
11037;SDS011;5572;49.540;11.932;2022-09-02T04:34:24;2.30;;;2.10;;
11037;SDS011;5572;49.540;11.932;2022-09-02T04:36:51;2.80;;;2.17;;
11037;SDS011;5572;49.540;11.932;2022-09-02T04:39:18;1.70;;;1.60;;
11037;SDS011;5572;49.540;11.932;2022-09-02T04:41:44;2.27;;;2.13;;
11037;SDS011;5572;49.540;11.932;2022-09-02T04:44:11;2.20;;;2.10;;
11037;SDS011;5572;49.540;11.932;2022-09-02T04:46:38;2.60;;;2.40;;
11037;SDS011;5572;49.540;11.932;2022-09-02T04:49:06;2.50;;;1.90;;
11037;SDS011;5572;49.540;11.932;2022-09-02T04:51:33;3.53;;;1.70;;
11037;SDS011;5572;49.540;11.932;2022-09-02T04:53:59;2.30;;;2.20;;
11037;SDS011;5572;49.540;11.932;2022-09-02T04:56:27;2.53;;;2.30;;
11037;SDS011;5572;49.540;11.932;2022-09-02T04:58:55;4.43;;;2.30;;
11037;SDS011;5572;49.540;11.932;2022-09-02T05:01:23;2.10;;;2.00;;
11037;SDS011;5572;49.540;11.932;2022-09-02T05:03:51;2.40;;;2.20;;
11037;SDS011;5572;49.540;11.932;2022-09-02T05:06:20;2.43;;;2.23;;
11037;SDS011;5572;49.540;11.932;2022-09-02T05:08:50;2.90;;;2.17;;
11037;SDS011;5572;49.540;11.932;2022-09-02T05:11:18;2.40;;;2.20;;
11037;SDS011;5572;49.540;11.932;2022-09-02T05:13:47;1.50;;;1.50;;
11037;SDS011;5572;49.540;11.932;2022-09-02T05:16:15;2.20;;;2.10;;
11037;SDS011;5572;49.540;11.932;2022-09-02T05:18:44;2.47;;;2.27;;
11037;SDS011;5572;49.540;11.932;2022-09-02T05:21:11;2.50;;;2.30;;
11037;SDS011;5572;49.540;11.932;2022-09-02T05:23:39;2.70;;;2.00;;
11037;SDS011;5572;49.540;11.932;2022-09-02T05:26:06;2.27;;;2.17;;
11037;SDS011;5572;49.540;11.932;2022-09-02T05:28:35;4.20;;;2.47;;
11037;SDS011;5572;49.540;11.932;2022-09-02T05:31:02;2.40;;;2.20;;
11037;SDS011;5572;49.540;11.932;2022-09-02T05:33:30;2.10;;;1.90;;
11037;SDS011;5572;49.540;11.932;2022-09-02T05:35:56;3.10;;;2.30;;
11037;SDS011;5572;49.540;11.932;2022-09-02T05:38:23;2.10;;;2.00;;
11037;SDS011;5572;49.540;11.932;2022-09-02T05:40:51;2.50;;;2.30;;
11037;SDS011;5572;49.540;11.932;2022-09-02T05:43:18;2.00;;;1.90;;
11037;SDS011;5572;49.540;11.932;2022-09-02T05:45:44;2.40;;;2.20;;
11037;SDS011;5572;49.540;11.932;2022-09-02T05:48:12;2.87;;;2.57;;
11037;SDS011;5572;49.540;11.932;2022-09-02T05:50:52;4.83;;;2.60;;
11037;SDS011;5572;49.540;11.932;2022-09-02T05:53:19;2.60;;;2.40;;
11037;SDS011;5572;49.540;11.932;2022-09-02T05:55:45;2.50;;;2.30;;
11037;SDS011;5572;49.540;11.932;2022-09-02T05:58:13;2.93;;;2.10;;
11037;SDS011;5572;49.540;11.932;2022-09-02T06:00:40;3.70;;;2.30;;
11037;SDS011;5572;49.540;11.932;2022-09-02T06:03:07;3.67;;;2.30;;
11037;SDS011;5572;49.540;11.932;2022-09-02T06:05:34;5.53;;;2.80;;
11037;SDS011;5572;49.540;11.932;2022-09-02T06:08:01;5.33;;;2.60;;
11037;SDS011;5572;49.540;11.932;2022-09-02T06:10:28;2.57;;;2.40;;
11037;SDS011;5572;49.540;11.932;2022-09-02T06:12:55;2.40;;;2.20;;
11037;SDS011;5572;49.540;11.932;2022-09-02T06:15:23;3.60;;;2.40;;
11037;SDS011;5572;49.540;11.932;2022-09-02T06:17:52;2.10;;;2.00;;
11037;SDS011;5572;49.540;11.932;2022-09-02T06:20:19;4.00;;;2.20;;
11037;SDS011;5572;49.540;11.932;2022-09-02T06:22:46;2.40;;;2.20;;
11037;SDS011;5572;49.540;11.932;2022-09-02T06:25:12;2.40;;;2.20;;
11037;SDS011;5572;49.540;11.932;2022-09-02T06:27:39;3.13;;;2.23;;
11037;SDS011;5572;49.540;11.932;2022-09-02T06:30:06;3.83;;;2.00;;
11037;SDS011;5572;49.540;11.932;2022-09-02T06:32:35;2.53;;;2.33;;
11037;SDS011;5572;49.540;11.932;2022-09-02T06:35:01;2.30;;;2.10;;
11037;SDS011;5572;49.540;11.932;2022-09-02T06:37:28;2.27;;;2.07;;
11037;SDS011;5572;49.540;11.932;2022-09-02T06:39:55;2.13;;;2.03;;
11037;SDS011;5572;49.540;11.932;2022-09-02T06:42:21;2.33;;;2.03;;
11037;SDS011;5572;49.540;11.932;2022-09-02T06:44:48;2.43;;;2.03;;
11037;SDS011;5572;49.540;11.932;2022-09-02T06:47:14;2.63;;;2.20;;
11037;SDS011;5572;49.540;11.932;2022-09-02T06:49:42;2.20;;;2.00;;
11037;SDS011;5572;49.540;11.932;2022-09-02T06:52:11;3.40;;;2.37;;
11037;SDS011;5572;49.540;11.932;2022-09-02T06:54:38;2.40;;;2.20;;
11037;SDS011;5572;49.540;11.932;2022-09-02T06:57:04;2.10;;;1.90;;
11037;SDS011;5572;49.540;11.932;2022-09-02T06:59:31;2.10;;;2.00;;
11037;SDS011;5572;49.540;11.932;2022-09-02T07:01:57;2.20;;;2.00;;
11037;SDS011;5572;49.540;11.932;2022-09-02T07:04:24;3.10;;;1.83;;
11037;SDS011;5572;49.540;11.932;2022-09-02T07:07:09;2.10;;;1.90;;
11037;SDS011;5572;49.540;11.932;2022-09-02T07:09:36;2.10;;;2.00;;
11037;SDS011;5572;49.540;11.932;2022-09-02T07:12:04;2.93;;;2.23;;
11037;SDS011;5572;49.540;11.932;2022-09-02T07:14:31;2.20;;;2.00;;
11037;SDS011;5572;49.540;11.932;2022-09-02T07:17:01;2.77;;;1.77;;
11037;SDS011;5572;49.540;11.932;2022-09-02T07:19:28;3.83;;;2.00;;
11037;SDS011;5572;49.540;11.932;2022-09-02T07:21:54;3.03;;;1.73;;
11037;SDS011;5572;49.540;11.932;2022-09-02T07:24:22;1.80;;;1.70;;
11037;SDS011;5572;49.540;11.932;2022-09-02T07:26:49;1.93;;;1.80;;
11037;SDS011;5572;49.540;11.932;2022-09-02T07:29:16;2.30;;;2.10;;
11037;SDS011;5572;49.540;11.932;2022-09-02T07:31:43;2.20;;;1.60;;
11037;SDS011;5572;49.540;11.932;2022-09-02T07:34:12;1.47;;;1.40;;
11037;SDS011;5572;49.540;11.932;2022-09-02T07:36:39;3.23;;;1.83;;
11037;SDS011;5572;49.540;11.932;2022-09-02T07:39:07;2.00;;;1.90;;
11037;SDS011;5572;49.540;11.932;2022-09-02T07:41:37;1.87;;;1.77;;
11037;SDS011;5572;49.540;11.932;2022-09-02T07:44:05;3.43;;;1.70;;
11037;SDS011;5572;49.540;11.932;2022-09-02T07:46:31;2.07;;;1.80;;
11037;SDS011;5572;49.540;11.932;2022-09-02T07:48:59;1.67;;;1.57;;
11037;SDS011;5572;49.540;11.932;2022-09-02T07:51:29;1.63;;;1.53;;
11037;SDS011;5572;49.540;11.932;2022-09-02T07:53:57;2.23;;;1.70;;
11037;SDS011;5572;49.540;11.932;2022-09-02T07:56:23;3.33;;;1.50;;
11037;SDS011;5572;49.540;11.932;2022-09-02T07:58:51;1.60;;;1.30;;
11037;SDS011;5572;49.540;11.932;2022-09-02T08:01:19;5.37;;;1.80;;
11037;SDS011;5572;49.540;11.932;2022-09-02T08:03:46;1.60;;;1.50;;
11037;SDS011;5572;49.540;11.932;2022-09-02T08:06:13;1.70;;;1.47;;
11037;SDS011;5572;49.540;11.932;2022-09-02T08:08:39;1.30;;;1.30;;
11037;SDS011;5572;49.540;11.932;2022-09-02T08:11:07;2.43;;;1.60;;
11037;SDS011;5572;49.540;11.932;2022-09-02T08:13:34;3.60;;;1.57;;
11037;SDS011;5572;49.540;11.932;2022-09-02T08:16:03;1.60;;;1.50;;
11037;SDS011;5572;49.540;11.932;2022-09-02T08:18:30;1.73;;;1.43;;
11037;SDS011;5572;49.540;11.932;2022-09-02T08:20:58;4.50;;;1.70;;
11037;SDS011;5572;49.540;11.932;2022-09-02T08:23:24;6.53;;;1.60;;
11037;SDS011;5572;49.540;11.932;2022-09-02T08:25:51;1.60;;;1.50;;
11037;SDS011;5572;49.540;11.932;2022-09-02T08:28:17;1.53;;;1.47;;
11037;SDS011;5572;49.540;11.932;2022-09-02T08:30:44;2.77;;;1.37;;
11037;SDS011;5572;49.540;11.932;2022-09-02T08:33:12;4.43;;;1.90;;
11037;SDS011;5572;49.540;11.932;2022-09-02T08:35:38;1.70;;;1.60;;
11037;SDS011;5572;49.540;11.932;2022-09-02T08:38:05;1.80;;;1.70;;
11037;SDS011;5572;49.540;11.932;2022-09-02T08:40:34;1.80;;;1.70;;
11037;SDS011;5572;49.540;11.932;2022-09-02T08:43:14;1.80;;;1.70;;
11037;SDS011;5572;49.540;11.932;2022-09-02T08:45:53;7.77;;;1.80;;
11037;SDS011;5572;49.540;11.932;2022-09-02T08:48:26;4.37;;;1.53;;
11037;SDS011;5572;49.540;11.932;2022-09-02T08:51:02;1.67;;;1.50;;
11037;SDS011;5572;49.540;11.932;2022-09-02T08:53:34;1.50;;;1.40;;
11037;SDS011;5572;49.540;11.932;2022-09-02T08:56:05;1.63;;;1.53;;
11037;SDS011;5572;49.540;11.932;2022-09-02T08:58:37;1.60;;;1.50;;
11037;SDS011;5572;49.540;11.932;2022-09-02T09:01:06;1.67;;;1.53;;
11037;SDS011;5572;49.540;11.932;2022-09-02T09:03:41;1.23;;;1.20;;
11037;SDS011;5572;49.540;11.932;2022-09-02T09:06:22;1.43;;;1.33;;
11037;SDS011;5572;49.540;11.932;2022-09-02T09:08:58;1.30;;;1.20;;
11037;SDS011;5572;49.540;11.932;2022-09-02T09:11:32;1.33;;;1.23;;
11037;SDS011;5572;49.540;11.932;2022-09-02T09:14:10;2.90;;;1.30;;
11037;SDS011;5572;49.540;11.932;2022-09-02T09:16:47;1.20;;;1.10;;
11037;SDS011;5572;49.540;11.932;2022-09-02T09:19:24;1.40;;;1.30;;
11037;SDS011;5572;49.540;11.932;2022-09-02T09:21:59;1.53;;;1.47;;
11037;SDS011;5572;49.540;11.932;2022-09-02T09:24:29;1.20;;;1.20;;
11037;SDS011;5572;49.540;11.932;2022-09-02T09:27:00;1.53;;;1.30;;
11037;SDS011;5572;49.540;11.932;2022-09-02T09:29:30;2.20;;;1.37;;
11037;SDS011;5572;49.540;11.932;2022-09-02T09:31:57;3.90;;;1.13;;
11037;SDS011;5572;49.540;11.932;2022-09-02T09:37:30;1.23;;;1.20;;
11037;SDS011;5572;49.540;11.932;2022-09-02T09:39:59;1.27;;;1.07;;
11037;SDS011;5572;49.540;11.932;2022-09-02T09:42:30;1.20;;;1.03;;
11037;SDS011;5572;49.540;11.932;2022-09-02T09:44:59;1.30;;;1.20;;
11037;SDS011;5572;49.540;11.932;2022-09-02T09:47:39;3.00;;;1.73;;
11037;SDS011;5572;49.540;11.932;2022-09-02T09:50:10;3.10;;;1.10;;
11037;SDS011;5572;49.540;11.932;2022-09-02T09:52:41;1.13;;;1.13;;
11037;SDS011;5572;49.540;11.932;2022-09-02T09:55:12;1.13;;;1.13;;
11037;SDS011;5572;49.540;11.932;2022-09-02T09:57:41;1.20;;;1.10;;
11037;SDS011;5572;49.540;11.932;2022-09-02T10:00:10;1.30;;;1.17;;
11037;SDS011;5572;49.540;11.932;2022-09-02T10:02:45;1.03;;;0.97;;
11037;SDS011;5572;49.540;11.932;2022-09-02T10:05:18;1.20;;;1.20;;
11037;SDS011;5572;49.540;11.932;2022-09-02T10:07:55;1.40;;;1.30;;
11037;SDS011;5572;49.540;11.932;2022-09-02T10:10:25;4.03;;;1.17;;
11037;SDS011;5572;49.540;11.932;2022-09-02T10:12:54;1.27;;;1.17;;
11037;SDS011;5572;49.540;11.932;2022-09-02T10:15:30;1.10;;;1.10;;
11037;SDS011;5572;49.540;11.932;2022-09-02T10:18:10;1.63;;;1.20;;
11037;SDS011;5572;49.540;11.932;2022-09-02T10:20:56;1.37;;;1.27;;
11037;SDS011;5572;49.540;11.932;2022-09-02T10:23:35;2.80;;;1.13;;
11037;SDS011;5572;49.540;11.932;2022-09-02T10:26:12;1.50;;;0.93;;
11037;SDS011;5572;49.540;11.932;2022-09-02T10:35:03;1.33;;;1.23;;
11037;SDS011;5572;49.540;11.932;2022-09-02T10:37:41;1.00;;;1.00;;
11037;SDS011;5572;49.540;11.932;2022-09-02T10:40:14;1.00;;;0.97;;
11037;SDS011;5572;49.540;11.932;2022-09-02T10:42:45;1.50;;;1.03;;
11037;SDS011;5572;49.540;11.932;2022-09-02T10:45:22;1.37;;;1.27;;
11037;SDS011;5572;49.540;11.932;2022-09-02T10:47:57;0.97;;;0.90;;
11037;SDS011;5572;49.540;11.932;2022-09-02T10:50:36;2.13;;;1.20;;
11037;SDS011;5572;49.540;11.932;2022-09-02T10:53:12;2.03;;;1.07;;
11037;SDS011;5572;49.540;11.932;2022-09-02T10:55:48;0.83;;;0.83;;
11037;SDS011;5572;49.540;11.932;2022-09-02T10:58:19;1.03;;;1.03;;
11037;SDS011;5572;49.540;11.932;2022-09-02T11:00:52;2.67;;;1.07;;
11037;SDS011;5572;49.540;11.932;2022-09-02T11:03:22;1.03;;;1.00;;
11037;SDS011;5572;49.540;11.932;2022-09-02T11:05:54;2.40;;;1.10;;
11037;SDS011;5572;49.540;11.932;2022-09-02T11:08:25;3.53;;;1.30;;
11037;SDS011;5572;49.540;11.932;2022-09-02T11:11:02;9.00;;;1.40;;
11037;SDS011;5572;49.540;11.932;2022-09-02T11:13:36;1.17;;;1.17;;
11037;SDS011;5572;49.540;11.932;2022-09-02T11:16:06;2.40;;;1.40;;
11037;SDS011;5572;49.540;11.932;2022-09-02T11:18:39;1.10;;;0.90;;
11037;SDS011;5572;49.540;11.932;2022-09-02T11:21:12;2.07;;;1.17;;
11037;SDS011;5572;49.540;11.932;2022-09-02T11:23:54;1.10;;;1.10;;
11037;SDS011;5572;49.540;11.932;2022-09-02T11:26:27;1.80;;;1.20;;
11037;SDS011;5572;49.540;11.932;2022-09-02T11:29:03;2.00;;;1.30;;
11037;SDS011;5572;49.540;11.932;2022-09-02T11:31:36;1.20;;;1.10;;
11037;SDS011;5572;49.540;11.932;2022-09-02T11:34:10;1.30;;;1.23;;
11037;SDS011;5572;49.540;11.932;2022-09-02T11:36:44;1.70;;;1.47;;
11037;SDS011;5572;49.540;11.932;2022-09-02T11:39:11;1.53;;;1.43;;
11037;SDS011;5572;49.540;11.932;2022-09-02T11:41:51;0.93;;;0.90;;
11037;SDS011;5572;49.540;11.932;2022-09-02T11:44:34;1.20;;;1.10;;
11037;SDS011;5572;49.540;11.932;2022-09-02T11:47:30;1.97;;;1.20;;
11037;SDS011;5572;49.540;11.932;2022-09-02T11:50:08;1.23;;;1.20;;
11037;SDS011;5572;49.540;11.932;2022-09-02T11:52:52;1.37;;;1.10;;
11037;SDS011;5572;49.540;11.932;2022-09-02T11:55:30;3.47;;;1.40;;
11037;SDS011;5572;49.540;11.932;2022-09-02T11:58:01;1.50;;;1.40;;
11037;SDS011;5572;49.540;11.932;2022-09-02T12:00:30;1.90;;;1.07;;
11037;SDS011;5572;49.540;11.932;2022-09-02T12:03:13;1.40;;;1.30;;
11037;SDS011;5572;49.540;11.932;2022-09-02T12:05:46;1.40;;;1.30;;
11037;SDS011;5572;49.540;11.932;2022-09-02T12:17:31;1.03;;;1.03;;
11037;SDS011;5572;49.540;11.932;2022-09-02T12:20:01;2.17;;;1.00;;
11037;SDS011;5572;49.540;11.932;2022-09-02T12:28:22;3.00;;;1.20;;
11037;SDS011;5572;49.540;11.932;2022-09-02T12:33:43;2.27;;;1.00;;
11037;SDS011;5572;49.540;11.932;2022-09-02T12:42:17;0.90;;;0.90;;
11037;SDS011;5572;49.540;11.932;2022-09-02T12:44:49;1.20;;;1.10;;
11037;SDS011;5572;49.540;11.932;2022-09-02T12:47:22;3.13;;;1.33;;
11037;SDS011;5572;49.540;11.932;2022-09-02T12:50:01;2.43;;;1.27;;
11037;SDS011;5572;49.540;11.932;2022-09-02T12:52:40;2.23;;;1.17;;
11037;SDS011;5572;49.540;11.932;2022-09-02T12:55:09;1.57;;;1.20;;
11037;SDS011;5572;49.540;11.932;2022-09-02T12:57:46;1.33;;;0.97;;
11037;SDS011;5572;49.540;11.932;2022-09-02T13:00:15;2.17;;;1.10;;
11037;SDS011;5572;49.540;11.932;2022-09-02T13:02:52;2.07;;;0.93;;
11037;SDS011;5572;49.540;11.932;2022-09-02T13:05:30;1.07;;;1.03;;
11037;SDS011;5572;49.540;11.932;2022-09-02T13:08:21;0.87;;;0.87;;
11037;SDS011;5572;49.540;11.932;2022-09-02T13:11:31;1.13;;;1.10;;
11037;SDS011;5572;49.540;11.932;2022-09-02T13:14:16;4.90;;;1.10;;
11037;SDS011;5572;49.540;11.932;2022-09-02T13:17:01;1.63;;;0.97;;
11037;SDS011;5572;49.540;11.932;2022-09-02T13:19:50;0.93;;;0.93;;
11037;SDS011;5572;49.540;11.932;2022-09-02T13:22:37;0.90;;;0.90;;
11037;SDS011;5572;49.540;11.932;2022-09-02T13:25:25;1.13;;;1.03;;
11037;SDS011;5572;49.540;11.932;2022-09-02T13:31:18;1.03;;;1.03;;
11037;SDS011;5572;49.540;11.932;2022-09-02T13:33:46;1.23;;;1.13;;
11037;SDS011;5572;49.540;11.932;2022-09-02T13:36:18;4.43;;;1.03;;
11037;SDS011;5572;49.540;11.932;2022-09-02T13:38:52;1.17;;;1.17;;
11037;SDS011;5572;49.540;11.932;2022-09-02T13:41:29;1.10;;;1.10;;
11037;SDS011;5572;49.540;11.932;2022-09-02T13:44:06;0.87;;;0.87;;
11037;SDS011;5572;49.540;11.932;2022-09-02T13:46:47;1.37;;;1.10;;
11037;SDS011;5572;49.540;11.932;2022-09-02T13:49:19;0.90;;;0.90;;
11037;SDS011;5572;49.540;11.932;2022-09-02T13:51:51;2.60;;;1.20;;
11037;SDS011;5572;49.540;11.932;2022-09-02T13:54:28;1.00;;;1.00;;
11037;SDS011;5572;49.540;11.932;2022-09-02T13:56:59;1.00;;;1.00;;
11037;SDS011;5572;49.540;11.932;2022-09-02T13:59:34;1.70;;;0.90;;
11037;SDS011;5572;49.540;11.932;2022-09-02T14:02:16;1.00;;;1.00;;
11037;SDS011;5572;49.540;11.932;2022-09-02T14:04:45;1.50;;;1.17;;
11037;SDS011;5572;49.540;11.932;2022-09-02T14:07:14;1.20;;;1.10;;
11037;SDS011;5572;49.540;11.932;2022-09-02T14:09:44;1.23;;;1.00;;
11037;SDS011;5572;49.540;11.932;2022-09-02T14:12:11;2.00;;;1.00;;
11037;SDS011;5572;49.540;11.932;2022-09-02T14:14:39;1.03;;;0.97;;
11037;SDS011;5572;49.540;11.932;2022-09-02T14:17:16;2.30;;;1.00;;
11037;SDS011;5572;49.540;11.932;2022-09-02T14:19:43;1.40;;;1.30;;
11037;SDS011;5572;49.540;11.932;2022-09-02T14:22:17;1.00;;;1.00;;
11037;SDS011;5572;49.540;11.932;2022-09-02T14:24:52;1.03;;;1.03;;
11037;SDS011;5572;49.540;11.932;2022-09-02T14:27:19;1.00;;;1.00;;
11037;SDS011;5572;49.540;11.932;2022-09-02T14:29:49;3.93;;;1.20;;
11037;SDS011;5572;49.540;11.932;2022-09-02T14:32:20;1.53;;;1.03;;
11037;SDS011;5572;49.540;11.932;2022-09-02T14:34:49;1.90;;;1.10;;
11037;SDS011;5572;49.540;11.932;2022-09-02T14:37:45;1.10;;;1.10;;
11037;SDS011;5572;49.540;11.932;2022-09-02T14:40:15;1.00;;;1.00;;
11037;SDS011;5572;49.540;11.932;2022-09-02T14:42:55;1.03;;;1.03;;
11037;SDS011;5572;49.540;11.932;2022-09-02T14:45:26;1.40;;;1.23;;
11037;SDS011;5572;49.540;11.932;2022-09-02T14:47:54;1.03;;;1.03;;
11037;SDS011;5572;49.540;11.932;2022-09-02T14:50:24;1.23;;;1.13;;
11037;SDS011;5572;49.540;11.932;2022-09-02T14:52:55;1.30;;;1.20;;
11037;SDS011;5572;49.540;11.932;2022-09-02T14:55:40;1.00;;;1.00;;
11037;SDS011;5572;49.540;11.932;2022-09-02T14:58:10;1.40;;;1.30;;
11037;SDS011;5572;49.540;11.932;2022-09-02T15:00:37;1.40;;;1.37;;
11037;SDS011;5572;49.540;11.932;2022-09-02T15:03:04;1.10;;;1.10;;
11037;SDS011;5572;49.540;11.932;2022-09-02T15:05:32;1.03;;;1.03;;
11037;SDS011;5572;49.540;11.932;2022-09-02T15:07:58;1.00;;;1.00;;
11037;SDS011;5572;49.540;11.932;2022-09-02T15:10:24;0.90;;;0.90;;
11037;SDS011;5572;49.540;11.932;2022-09-02T15:12:54;1.13;;;0.90;;
11037;SDS011;5572;49.540;11.932;2022-09-02T15:15:21;1.03;;;1.03;;
11037;SDS011;5572;49.540;11.932;2022-09-02T15:17:48;1.10;;;1.10;;
11037;SDS011;5572;49.540;11.932;2022-09-02T15:20:15;2.23;;;0.83;;
11037;SDS011;5572;49.540;11.932;2022-09-02T15:22:41;1.13;;;1.10;;
11037;SDS011;5572;49.540;11.932;2022-09-02T15:25:09;1.27;;;1.20;;
11037;SDS011;5572;49.540;11.932;2022-09-02T15:27:36;1.23;;;1.20;;
11037;SDS011;5572;49.540;11.932;2022-09-02T15:30:05;0.90;;;0.90;;
11037;SDS011;5572;49.540;11.932;2022-09-02T15:32:33;1.00;;;1.00;;
11037;SDS011;5572;49.540;11.932;2022-09-02T15:34:59;2.67;;;1.20;;
11037;SDS011;5572;49.540;11.932;2022-09-02T15:37:26;1.40;;;1.30;;
11037;SDS011;5572;49.540;11.932;2022-09-02T15:39:53;2.10;;;1.30;;
11037;SDS011;5572;49.540;11.932;2022-09-02T15:42:20;1.43;;;1.10;;